Terminal Aerodrome Forecast
Issued by NWS

Home | Current Version | Previous Version | Text Only | Print | Product List | Glossary On
Versions: 1 2 3 4 5 6 7 8 9 10 11 12 13 14 15 16 17 18 19 20 21 22 23 24 25 26 27 28
000
FTUS42 KEYW 240600 AAA
TAFMTH
TAF AMD
KMTH 240624Z 2406/2506 05010G15KT 6SM -SHRA BKN025
     FM240800 03012G18KT P6SM VCSH BKN025
     FM241200 03015G20KT 6SM -SHRA BKN025
     FM242100 01015G20KT P6SM SCT025=

USA.gov is the U.S. government's official web portal to all federal, state and local government web resources and services.